sensor_id;sensor_type;location;lat;lon;timestamp;P1;durP1;ratioP1;P2;durP2;ratioP2
10811;SDS011;5458;51.496;7.334;2022-08-25T00:01:57;3.15;;;2.78;;
10811;SDS011;5458;51.496;7.334;2022-08-25T00:04:25;5.57;;;3.47;;
10811;SDS011;5458;51.496;7.334;2022-08-25T00:06:53;4.78;;;3.30;;
10811;SDS011;5458;51.496;7.334;2022-08-25T00:09:21;4.25;;;3.30;;
10811;SDS011;5458;51.496;7.334;2022-08-25T00:11:50;5.38;;;3.00;;
10811;SDS011;5458;51.496;7.334;2022-08-25T00:14:20;3.90;;;3.08;;
10811;SDS011;5458;51.496;7.334;2022-08-25T00:16:48;4.25;;;3.22;;
10811;SDS011;5458;51.496;7.334;2022-08-25T00:19:16;7.97;;;3.47;;
10811;SDS011;5458;51.496;7.334;2022-08-25T00:21:44;4.32;;;3.53;;
10811;SDS011;5458;51.496;7.334;2022-08-25T00:24:11;4.22;;;3.58;;
10811;SDS011;5458;51.496;7.334;2022-08-25T00:26:41;4.70;;;3.35;;
10811;SDS011;5458;51.496;7.334;2022-08-25T00:29:09;3.97;;;3.13;;
10811;SDS011;5458;51.496;7.334;2022-08-25T00:31:36;6.18;;;3.35;;
10811;SDS011;5458;51.496;7.334;2022-08-25T00:34:02;4.03;;;3.47;;
10811;SDS011;5458;51.496;7.334;2022-08-25T00:36:31;4.30;;;3.30;;
10811;SDS011;5458;51.496;7.334;2022-08-25T00:38:57;4.05;;;3.33;;
10811;SDS011;5458;51.496;7.334;2022-08-25T00:41:23;3.58;;;3.08;;
10811;SDS011;5458;51.496;7.334;2022-08-25T00:43:57;9.27;;;3.92;;
10811;SDS011;5458;51.496;7.334;2022-08-25T00:46:27;3.72;;;3.05;;
10811;SDS011;5458;51.496;7.334;2022-08-25T00:51:46;4.10;;;3.33;;
10811;SDS011;5458;51.496;7.334;2022-08-25T00:54:48;6.38;;;3.40;;
10811;SDS011;5458;51.496;7.334;2022-08-25T00:57:27;4.45;;;3.72;;
10811;SDS011;5458;51.496;7.334;2022-08-25T00:59:57;3.55;;;3.15;;
10811;SDS011;5458;51.496;7.334;2022-08-25T01:02:23;5.07;;;3.03;;
10811;SDS011;5458;51.496;7.334;2022-08-25T01:04:48;4.28;;;3.88;;
10811;SDS011;5458;51.496;7.334;2022-08-25T01:07:14;3.90;;;3.33;;
10811;SDS011;5458;51.496;7.334;2022-08-25T01:09:43;4.47;;;3.63;;
10811;SDS011;5458;51.496;7.334;2022-08-25T01:12:10;5.35;;;3.80;;
10811;SDS011;5458;51.496;7.334;2022-08-25T01:14:35;5.53;;;2.95;;
10811;SDS011;5458;51.496;7.334;2022-08-25T01:17:02;3.30;;;3.03;;
10811;SDS011;5458;51.496;7.334;2022-08-25T01:19:29;4.38;;;3.20;;
10811;SDS011;5458;51.496;7.334;2022-08-25T01:21:56;4.55;;;3.20;;
10811;SDS011;5458;51.496;7.334;2022-08-25T01:24:28;5.00;;;3.53;;
10811;SDS011;5458;51.496;7.334;2022-08-25T01:27:07;4.07;;;3.08;;
10811;SDS011;5458;51.496;7.334;2022-08-25T01:29:34;4.50;;;2.90;;
10811;SDS011;5458;51.496;7.334;2022-08-25T01:32:04;4.03;;;3.58;;
10811;SDS011;5458;51.496;7.334;2022-08-25T01:34:34;6.88;;;3.45;;
10811;SDS011;5458;51.496;7.334;2022-08-25T01:37:02;3.97;;;3.30;;
10811;SDS011;5458;51.496;7.334;2022-08-25T01:39:29;5.50;;;3.85;;
10811;SDS011;5458;51.496;7.334;2022-08-25T01:44:45;6.47;;;3.60;;
10811;SDS011;5458;51.496;7.334;2022-08-25T01:47:11;4.90;;;3.08;;
10811;SDS011;5458;51.496;7.334;2022-08-25T01:49:38;3.67;;;3.38;;
10811;SDS011;5458;51.496;7.334;2022-08-25T01:54:29;4.93;;;3.67;;
10811;SDS011;5458;51.496;7.334;2022-08-25T01:56:56;5.97;;;3.30;;
10811;SDS011;5458;51.496;7.334;2022-08-25T01:59:22;4.45;;;3.70;;
10811;SDS011;5458;51.496;7.334;2022-08-25T02:01:50;3.78;;;3.28;;
10811;SDS011;5458;51.496;7.334;2022-08-25T02:04:15;4.88;;;3.25;;
10811;SDS011;5458;51.496;7.334;2022-08-25T02:06:41;6.40;;;3.40;;
10811;SDS011;5458;51.496;7.334;2022-08-25T02:09:09;4.88;;;3.33;;
10811;SDS011;5458;51.496;7.334;2022-08-25T02:11:37;4.00;;;3.22;;
10811;SDS011;5458;51.496;7.334;2022-08-25T02:14:04;7.55;;;3.85;;
10811;SDS011;5458;51.496;7.334;2022-08-25T02:16:32;4.00;;;3.42;;
10811;SDS011;5458;51.496;7.334;2022-08-25T02:18:59;3.50;;;2.83;;
10811;SDS011;5458;51.496;7.334;2022-08-25T02:21:25;4.53;;;3.28;;
10811;SDS011;5458;51.496;7.334;2022-08-25T02:23:51;5.43;;;3.58;;
10811;SDS011;5458;51.496;7.334;2022-08-25T02:26:17;5.68;;;3.45;;
10811;SDS011;5458;51.496;7.334;2022-08-25T02:28:47;6.43;;;3.05;;
10811;SDS011;5458;51.496;7.334;2022-08-25T02:31:15;6.95;;;3.33;;
10811;SDS011;5458;51.496;7.334;2022-08-25T02:33:42;5.85;;;3.40;;
10811;SDS011;5458;51.496;7.334;2022-08-25T02:36:08;6.07;;;3.53;;
10811;SDS011;5458;51.496;7.334;2022-08-25T02:38:34;6.07;;;3.72;;
10811;SDS011;5458;51.496;7.334;2022-08-25T02:41:00;7.53;;;3.40;;
10811;SDS011;5458;51.496;7.334;2022-08-25T02:43:44;7.60;;;3.53;;
10811;SDS011;5458;51.496;7.334;2022-08-25T02:46:13;4.00;;;3.60;;
10811;SDS011;5458;51.496;7.334;2022-08-25T02:48:40;8.10;;;3.70;;
10811;SDS011;5458;51.496;7.334;2022-08-25T02:51:06;7.47;;;3.53;;
10811;SDS011;5458;51.496;7.334;2022-08-25T02:53:34;4.47;;;3.60;;
10811;SDS011;5458;51.496;7.334;2022-08-25T02:56:00;5.00;;;3.33;;
10811;SDS011;5458;51.496;7.334;2022-08-25T02:58:26;5.20;;;3.53;;
10811;SDS011;5458;51.496;7.334;2022-08-25T03:00:53;5.25;;;2.95;;
10811;SDS011;5458;51.496;7.334;2022-08-25T03:03:20;5.15;;;3.33;;
10811;SDS011;5458;51.496;7.334;2022-08-25T03:05:46;5.35;;;3.33;;
10811;SDS011;5458;51.496;7.334;2022-08-25T03:08:11;5.35;;;3.70;;
10811;SDS011;5458;51.496;7.334;2022-08-25T03:10:37;5.32;;;3.42;;
10811;SDS011;5458;51.496;7.334;2022-08-25T03:13:03;3.40;;;3.10;;
10811;SDS011;5458;51.496;7.334;2022-08-25T03:15:29;7.18;;;3.67;;
10811;SDS011;5458;51.496;7.334;2022-08-25T03:17:55;5.75;;;3.00;;
10811;SDS011;5458;51.496;7.334;2022-08-25T03:20:21;6.32;;;3.75;;
10811;SDS011;5458;51.496;7.334;2022-08-25T03:22:48;4.47;;;3.33;;
10811;SDS011;5458;51.496;7.334;2022-08-25T03:25:15;7.07;;;3.53;;
10811;SDS011;5458;51.496;7.334;2022-08-25T03:27:59;5.43;;;3.40;;
10811;SDS011;5458;51.496;7.334;2022-08-25T03:30:25;5.28;;;3.22;;
10811;SDS011;5458;51.496;7.334;2022-08-25T03:32:51;7.18;;;3.17;;
10811;SDS011;5458;51.496;7.334;2022-08-25T03:35:17;5.05;;;3.40;;
10811;SDS011;5458;51.496;7.334;2022-08-25T03:37:43;5.55;;;3.42;;
10811;SDS011;5458;51.496;7.334;2022-08-25T03:40:09;5.45;;;3.63;;
10811;SDS011;5458;51.496;7.334;2022-08-25T03:42:40;5.25;;;3.28;;
10811;SDS011;5458;51.496;7.334;2022-08-25T03:45:07;7.90;;;3.30;;
10811;SDS011;5458;51.496;7.334;2022-08-25T03:47:35;4.82;;;3.28;;
10811;SDS011;5458;51.496;7.334;2022-08-25T03:50:02;5.05;;;3.80;;
10811;SDS011;5458;51.496;7.334;2022-08-25T03:52:29;4.72;;;3.13;;
10811;SDS011;5458;51.496;7.334;2022-08-25T03:54:55;6.60;;;3.35;;
10811;SDS011;5458;51.496;7.334;2022-08-25T03:57:20;4.55;;;4.03;;
10811;SDS011;5458;51.496;7.334;2022-08-25T03:59:46;5.90;;;3.67;;
10811;SDS011;5458;51.496;7.334;2022-08-25T04:02:12;6.22;;;4.13;;
10811;SDS011;5458;51.496;7.334;2022-08-25T04:04:37;5.22;;;4.30;;
10811;SDS011;5458;51.496;7.334;2022-08-25T04:07:04;6.55;;;3.50;;
10811;SDS011;5458;51.496;7.334;2022-08-25T04:09:30;8.45;;;4.55;;
10811;SDS011;5458;51.496;7.334;2022-08-25T04:11:56;8.95;;;4.03;;
10811;SDS011;5458;51.496;7.334;2022-08-25T04:14:22;5.78;;;3.92;;
10811;SDS011;5458;51.496;7.334;2022-08-25T04:16:47;5.03;;;4.15;;
10811;SDS011;5458;51.496;7.334;2022-08-25T04:19:13;3.72;;;3.38;;
10811;SDS011;5458;51.496;7.334;2022-08-25T04:21:39;7.82;;;4.10;;
10811;SDS011;5458;51.496;7.334;2022-08-25T04:24:06;5.28;;;3.85;;
10811;SDS011;5458;51.496;7.334;2022-08-25T04:26:37;5.30;;;3.95;;
10811;SDS011;5458;51.496;7.334;2022-08-25T04:29:07;5.03;;;3.72;;
10811;SDS011;5458;51.496;7.334;2022-08-25T04:31:34;9.48;;;4.18;;
10811;SDS011;5458;51.496;7.334;2022-08-25T04:34:02;6.18;;;3.88;;
10811;SDS011;5458;51.496;7.334;2022-08-25T04:36:29;4.85;;;3.70;;
10811;SDS011;5458;51.496;7.334;2022-08-25T04:38:56;5.32;;;3.63;;
10811;SDS011;5458;51.496;7.334;2022-08-25T04:41:24;7.63;;;4.35;;
10811;SDS011;5458;51.496;7.334;2022-08-25T04:43:54;4.85;;;3.35;;
10811;SDS011;5458;51.496;7.334;2022-08-25T04:46:22;5.32;;;3.75;;
10811;SDS011;5458;51.496;7.334;2022-08-25T04:48:50;5.22;;;3.55;;
10811;SDS011;5458;51.496;7.334;2022-08-25T04:51:18;7.18;;;4.07;;
10811;SDS011;5458;51.496;7.334;2022-08-25T04:53:47;5.05;;;3.75;;
10811;SDS011;5458;51.496;7.334;2022-08-25T04:56:14;6.72;;;4.00;;
10811;SDS011;5458;51.496;7.334;2022-08-25T04:58:43;5.22;;;4.25;;
10811;SDS011;5458;51.496;7.334;2022-08-25T05:01:12;6.53;;;3.40;;
10811;SDS011;5458;51.496;7.334;2022-08-25T05:03:39;8.40;;;3.83;;
10811;SDS011;5458;51.496;7.334;2022-08-25T05:06:06;7.45;;;4.65;;
10811;SDS011;5458;51.496;7.334;2022-08-25T05:08:33;4.15;;;3.67;;
10811;SDS011;5458;51.496;7.334;2022-08-25T05:11:03;7.82;;;5.35;;
10811;SDS011;5458;51.496;7.334;2022-08-25T05:13:30;8.60;;;4.32;;
10811;SDS011;5458;51.496;7.334;2022-08-25T05:15:57;7.05;;;4.28;;
10811;SDS011;5458;51.496;7.334;2022-08-25T05:18:24;9.30;;;4.38;;
10811;SDS011;5458;51.496;7.334;2022-08-25T05:20:52;7.35;;;3.90;;
10811;SDS011;5458;51.496;7.334;2022-08-25T05:23:19;5.75;;;3.95;;
10811;SDS011;5458;51.496;7.334;2022-08-25T05:25:46;4.05;;;3.65;;
10811;SDS011;5458;51.496;7.334;2022-08-25T05:28:12;7.57;;;4.55;;
10811;SDS011;5458;51.496;7.334;2022-08-25T05:30:39;7.28;;;4.50;;
10811;SDS011;5458;51.496;7.334;2022-08-25T05:33:07;6.50;;;4.57;;
10811;SDS011;5458;51.496;7.334;2022-08-25T05:35:33;4.25;;;3.85;;
10811;SDS011;5458;51.496;7.334;2022-08-25T05:38:00;5.18;;;4.13;;
10811;SDS011;5458;51.496;7.334;2022-08-25T05:40:28;6.43;;;4.05;;
10811;SDS011;5458;51.496;7.334;2022-08-25T05:42:54;6.72;;;3.78;;
10811;SDS011;5458;51.496;7.334;2022-08-25T05:45:19;6.60;;;4.30;;
10811;SDS011;5458;51.496;7.334;2022-08-25T05:47:45;6.18;;;4.57;;
10811;SDS011;5458;51.496;7.334;2022-08-25T05:50:11;4.18;;;3.78;;
10811;SDS011;5458;51.496;7.334;2022-08-25T05:52:37;10.43;;;3.75;;
10811;SDS011;5458;51.496;7.334;2022-08-25T05:55:03;7.63;;;3.85;;
10811;SDS011;5458;51.496;7.334;2022-08-25T05:57:29;5.55;;;3.65;;
10811;SDS011;5458;51.496;7.334;2022-08-25T05:59:56;4.93;;;3.97;;
10811;SDS011;5458;51.496;7.334;2022-08-25T06:02:22;14.15;;;5.20;;
10811;SDS011;5458;51.496;7.334;2022-08-25T06:05:07;18.02;;;5.20;;
10811;SDS011;5458;51.496;7.334;2022-08-25T06:07:44;13.65;;;4.47;;
10811;SDS011;5458;51.496;7.334;2022-08-25T06:10:10;8.93;;;4.97;;
10811;SDS011;5458;51.496;7.334;2022-08-25T06:12:37;6.22;;;4.38;;
10811;SDS011;5458;51.496;7.334;2022-08-25T06:15:05;54.00;;;51.72;;
10811;SDS011;5458;51.496;7.334;2022-08-25T06:17:32;278.02;;;268.63;;
10811;SDS011;5458;51.496;7.334;2022-08-25T06:20:05;906.15;;;851.40;;
10811;SDS011;5458;51.496;7.334;2022-08-25T06:22:34;1080.57;;;998.47;;
10811;SDS011;5458;51.496;7.334;2022-08-25T06:25:01;1194.13;;;999.90;;
10811;SDS011;5458;51.496;7.334;2022-08-25T06:27:28;1097.53;;;999.90;;
10811;SDS011;5458;51.496;7.334;2022-08-25T06:29:53;1000.97;;;942.67;;
10811;SDS011;5458;51.496;7.334;2022-08-25T06:32:19;660.50;;;631.88;;
10811;SDS011;5458;51.496;7.334;2022-08-25T06:34:44;604.33;;;581.08;;
10811;SDS011;5458;51.496;7.334;2022-08-25T06:37:10;663.10;;;634.20;;
10811;SDS011;5458;51.496;7.334;2022-08-25T06:39:36;382.27;;;369.00;;
10811;SDS011;5458;51.496;7.334;2022-08-25T06:42:01;323.55;;;312.83;;
10811;SDS011;5458;51.496;7.334;2022-08-25T06:44:27;257.10;;;248.18;;
10811;SDS011;5458;51.496;7.334;2022-08-25T06:46:53;196.50;;;190.05;;
10811;SDS011;5458;51.496;7.334;2022-08-25T06:49:19;196.05;;;189.93;;
10811;SDS011;5458;51.496;7.334;2022-08-25T06:51:45;164.63;;;159.32;;
10811;SDS011;5458;51.496;7.334;2022-08-25T06:54:11;90.82;;;87.78;;
10811;SDS011;5458;51.496;7.334;2022-08-25T06:56:38;35.92;;;34.42;;
10811;SDS011;5458;51.496;7.334;2022-08-25T06:59:05;285.60;;;276.33;;
10811;SDS011;5458;51.496;7.334;2022-08-25T07:01:32;265.52;;;257.15;;
10811;SDS011;5458;51.496;7.334;2022-08-25T07:03:59;265.80;;;256.95;;
10811;SDS011;5458;51.496;7.334;2022-08-25T07:06:27;324.27;;;313.30;;
10811;SDS011;5458;51.496;7.334;2022-08-25T07:08:55;184.90;;;178.73;;
10811;SDS011;5458;51.496;7.334;2022-08-25T07:11:21;292.70;;;283.08;;
10811;SDS011;5458;51.496;7.334;2022-08-25T07:13:47;277.80;;;268.92;;
10811;SDS011;5458;51.496;7.334;2022-08-25T07:16:13;294.88;;;285.35;;
10811;SDS011;5458;51.496;7.334;2022-08-25T07:18:39;128.65;;;124.20;;
10811;SDS011;5458;51.496;7.334;2022-08-25T07:21:05;103.18;;;99.40;;
10811;SDS011;5458;51.496;7.334;2022-08-25T07:23:31;61.08;;;58.60;;
10811;SDS011;5458;51.496;7.334;2022-08-25T07:26:05;31.35;;;29.95;;
10811;SDS011;5458;51.496;7.334;2022-08-25T07:28:35;34.38;;;32.92;;
10811;SDS011;5458;51.496;7.334;2022-08-25T07:31:01;22.77;;;21.75;;
10811;SDS011;5458;51.496;7.334;2022-08-25T07:33:27;23.52;;;22.30;;
10811;SDS011;5458;51.496;7.334;2022-08-25T07:35:52;28.40;;;27.15;;
10811;SDS011;5458;51.496;7.334;2022-08-25T07:38:18;23.05;;;21.90;;
10811;SDS011;5458;51.496;7.334;2022-08-25T07:40:43;23.52;;;22.30;;
10811;SDS011;5458;51.496;7.334;2022-08-25T07:43:09;10.77;;;9.90;;
10811;SDS011;5458;51.496;7.334;2022-08-25T07:45:37;14.48;;;13.48;;
10811;SDS011;5458;51.496;7.334;2022-08-25T07:48:07;10.95;;;10.18;;
10811;SDS011;5458;51.496;7.334;2022-08-25T07:50:35;10.40;;;9.70;;
10811;SDS011;5458;51.496;7.334;2022-08-25T07:53:03;10.65;;;9.85;;
10811;SDS011;5458;51.496;7.334;2022-08-25T07:55:29;12.80;;;12.00;;
10811;SDS011;5458;51.496;7.334;2022-08-25T07:57:55;13.23;;;12.13;;
10811;SDS011;5458;51.496;7.334;2022-08-25T08:00:24;8.30;;;7.63;;
10811;SDS011;5458;51.496;7.334;2022-08-25T08:02:52;7.28;;;6.70;;
10811;SDS011;5458;51.496;7.334;2022-08-25T08:05:18;5.82;;;5.43;;
10811;SDS011;5458;51.496;7.334;2022-08-25T08:07:43;7.05;;;6.60;;
10811;SDS011;5458;51.496;7.334;2022-08-25T08:10:09;8.20;;;7.60;;
10811;SDS011;5458;51.496;7.334;2022-08-25T08:12:38;5.72;;;5.28;;
10811;SDS011;5458;51.496;7.334;2022-08-25T08:15:04;6.82;;;6.22;;
10811;SDS011;5458;51.496;7.334;2022-08-25T08:17:30;6.95;;;6.25;;
10811;SDS011;5458;51.496;7.334;2022-08-25T08:19:56;5.65;;;5.15;;
10811;SDS011;5458;51.496;7.334;2022-08-25T08:22:22;5.68;;;5.28;;
10811;SDS011;5458;51.496;7.334;2022-08-25T08:24:48;5.93;;;5.43;;
10811;SDS011;5458;51.496;7.334;2022-08-25T08:27:13;7.03;;;6.38;;
10811;SDS011;5458;51.496;7.334;2022-08-25T08:29:40;5.90;;;5.40;;
10811;SDS011;5458;51.496;7.334;2022-08-25T08:32:07;6.32;;;5.57;;
10811;SDS011;5458;51.496;7.334;2022-08-25T08:34:35;6.10;;;5.47;;
10811;SDS011;5458;51.496;7.334;2022-08-25T08:37:01;5.78;;;5.07;;
10811;SDS011;5458;51.496;7.334;2022-08-25T08:39:27;5.70;;;5.15;;
10811;SDS011;5458;51.496;7.334;2022-08-25T08:44:45;9.57;;;5.25;;
10811;SDS011;5458;51.496;7.334;2022-08-25T08:50:05;6.90;;;5.85;;
10811;SDS011;5458;51.496;7.334;2022-08-25T08:52:45;5.88;;;5.45;;
10811;SDS011;5458;51.496;7.334;2022-08-25T08:55:16;6.13;;;5.60;;
10811;SDS011;5458;51.496;7.334;2022-08-25T08:57:52;6.60;;;6.00;;
10811;SDS011;5458;51.496;7.334;2022-08-25T09:00:21;12.98;;;12.27;;
10811;SDS011;5458;51.496;7.334;2022-08-25T09:03:02;13.63;;;12.93;;
10811;SDS011;5458;51.496;7.334;2022-08-25T09:05:30;10.02;;;9.23;;
10811;SDS011;5458;51.496;7.334;2022-08-25T09:08:06;16.42;;;15.68;;
10811;SDS011;5458;51.496;7.334;2022-08-25T09:11:17;39.60;;;38.05;;
10811;SDS011;5458;51.496;7.334;2022-08-25T09:13:35;20.58;;;19.58;;
10811;SDS011;5458;51.496;7.334;2022-08-25T09:22:59;62.65;;;60.33;;
10811;SDS011;5458;51.496;7.334;2022-08-25T09:25:34;65.18;;;62.80;;
10811;SDS011;5458;51.496;7.334;2022-08-25T09:30:38;90.00;;;86.90;;
10811;SDS011;5458;51.496;7.334;2022-08-25T09:33:13;112.93;;;109.15;;
10811;SDS011;5458;51.496;7.334;2022-08-25T09:35:43;76.97;;;74.25;;
10811;SDS011;5458;51.496;7.334;2022-08-25T09:38:10;98.72;;;95.43;;
10811;SDS011;5458;51.496;7.334;2022-08-25T09:40:38;116.47;;;112.55;;
10811;SDS011;5458;51.496;7.334;2022-08-25T09:43:21;69.53;;;67.07;;
10811;SDS011;5458;51.496;7.334;2022-08-25T09:45:49;85.93;;;82.90;;
10811;SDS011;5458;51.496;7.334;2022-08-25T09:50:48;64.63;;;62.30;;
10811;SDS011;5458;51.496;7.334;2022-08-25T09:53:15;97.45;;;94.10;;
10811;SDS011;5458;51.496;7.334;2022-08-25T09:55:42;95.05;;;91.82;;
10811;SDS011;5458;51.496;7.334;2022-08-25T09:58:17;136.18;;;131.75;;
10811;SDS011;5458;51.496;7.334;2022-08-25T10:00:47;127.50;;;123.38;;
10811;SDS011;5458;51.496;7.334;2022-08-25T10:03:54;92.10;;;89.13;;
10811;SDS011;5458;51.496;7.334;2022-08-25T10:06:49;72.57;;;69.82;;
10811;SDS011;5458;51.496;7.334;2022-08-25T10:09:24;80.95;;;77.70;;
10811;SDS011;5458;51.496;7.334;2022-08-25T10:12:15;59.83;;;57.72;;
10811;SDS011;5458;51.496;7.334;2022-08-25T10:14:45;108.15;;;104.43;;
10811;SDS011;5458;51.496;7.334;2022-08-25T10:19:36;152.63;;;147.50;;
10811;SDS011;5458;51.496;7.334;2022-08-25T10:22:07;168.35;;;163.05;;
10811;SDS011;5458;51.496;7.334;2022-08-25T10:24:35;108.18;;;104.47;;
10811;SDS011;5458;51.496;7.334;2022-08-25T10:32:31;169.65;;;164.15;;
10811;SDS011;5458;51.496;7.334;2022-08-25T10:35:08;124.10;;;119.80;;
10811;SDS011;5458;51.496;7.334;2022-08-25T10:54:22;62.90;;;60.70;;
10811;SDS011;5458;51.496;7.334;2022-08-25T11:05:23;117.07;;;113.15;;
10811;SDS011;5458;51.496;7.334;2022-08-25T11:07:53;108.60;;;104.90;;
10811;SDS011;5458;51.496;7.334;2022-08-25T11:10:33;154.18;;;149.00;;
10811;SDS011;5458;51.496;7.334;2022-08-25T11:13:09;143.77;;;139.15;;
10811;SDS011;5458;51.496;7.334;2022-08-25T11:15:50;89.90;;;86.45;;
10811;SDS011;5458;51.496;7.334;2022-08-25T11:18:22;66.82;;;64.40;;
10811;SDS011;5458;51.496;7.334;2022-08-25T11:23:44;77.28;;;74.53;;
10811;SDS011;5458;51.496;7.334;2022-08-25T11:26:33;76.28;;;73.57;;
10811;SDS011;5458;51.496;7.334;2022-08-25T11:29:05;84.70;;;81.75;;
10811;SDS011;5458;51.496;7.334;2022-08-25T11:31:37;108.70;;;105.30;;
10811;SDS011;5458;51.496;7.334;2022-08-25T11:34:12;101.63;;;98.22;;
10811;SDS011;5458;51.496;7.334;2022-08-25T11:36:40;110.35;;;106.85;;
10811;SDS011;5458;51.496;7.334;2022-08-25T11:39:15;93.05;;;89.88;;
10811;SDS011;5458;51.496;7.334;2022-08-25T11:48:04;130.43;;;126.30;;
10811;SDS011;5458;51.496;7.334;2022-08-25T11:50:55;113.32;;;109.32;;
10811;SDS011;5458;51.496;7.334;2022-08-25T11:53:32;99.47;;;96.20;;
10811;SDS011;5458;51.496;7.334;2022-08-25T11:56:03;98.30;;;94.65;;
10811;SDS011;5458;51.496;7.334;2022-08-25T12:01:10;158.07;;;153.18;;
10811;SDS011;5458;51.496;7.334;2022-08-25T12:04:30;128.07;;;124.03;;
10811;SDS011;5458;51.496;7.334;2022-08-25T12:12:35;110.95;;;107.28;;
10811;SDS011;5458;51.496;7.334;2022-08-25T12:23:26;176.00;;;170.40;;
10811;SDS011;5458;51.496;7.334;2022-08-25T12:25:56;162.38;;;157.02;;
10811;SDS011;5458;51.496;7.334;2022-08-25T12:31:06;136.95;;;132.40;;
10811;SDS011;5458;51.496;7.334;2022-08-25T12:36:31;72.28;;;69.90;;
10811;SDS011;5458;51.496;7.334;2022-08-25T12:39:15;76.38;;;73.75;;
10811;SDS011;5458;51.496;7.334;2022-08-25T12:41:52;64.13;;;61.75;;
10811;SDS011;5458;51.496;7.334;2022-08-25T12:44:43;129.25;;;125.15;;
10811;SDS011;5458;51.496;7.334;2022-08-25T12:47:25;86.63;;;83.57;;
10811;SDS011;5458;51.496;7.334;2022-08-25T12:52:53;93.13;;;89.93;;
10811;SDS011;5458;51.496;7.334;2022-08-25T12:55:25;114.85;;;110.88;;
10811;SDS011;5458;51.496;7.334;2022-08-25T12:57:52;101.57;;;98.18;;
10811;SDS011;5458;51.496;7.334;2022-08-25T13:00:24;105.63;;;102.13;;
10811;SDS011;5458;51.496;7.334;2022-08-25T13:10:54;118.50;;;114.68;;
10811;SDS011;5458;51.496;7.334;2022-08-25T13:16:01;143.40;;;138.65;;
10811;SDS011;5458;51.496;7.334;2022-08-25T13:18:31;73.07;;;70.60;;
10811;SDS011;5458;51.496;7.334;2022-08-25T13:21:07;83.07;;;80.30;;
10811;SDS011;5458;51.496;7.334;2022-08-25T13:23:40;53.50;;;51.42;;
10811;SDS011;5458;51.496;7.334;2022-08-25T13:26:08;45.58;;;43.88;;
10811;SDS011;5458;51.496;7.334;2022-08-25T13:28:39;32.15;;;30.83;;
10811;SDS011;5458;51.496;7.334;2022-08-25T13:33:31;90.22;;;87.28;;
10811;SDS011;5458;51.496;7.334;2022-08-25T13:35:58;47.70;;;45.80;;
10811;SDS011;5458;51.496;7.334;2022-08-25T13:38:45;31.73;;;30.52;;
10811;SDS011;5458;51.496;7.334;2022-08-25T13:41:15;68.60;;;66.22;;
10811;SDS011;5458;51.496;7.334;2022-08-25T13:43:43;64.75;;;62.30;;
10811;SDS011;5458;51.496;7.334;2022-08-25T13:46:09;38.70;;;37.20;;
10811;SDS011;5458;51.496;7.334;2022-08-25T13:48:35;26.33;;;25.13;;
10811;SDS011;5458;51.496;7.334;2022-08-25T13:51:07;34.60;;;33.20;;
10811;SDS011;5458;51.496;7.334;2022-08-25T13:56:49;31.83;;;30.70;;
10811;SDS011;5458;51.496;7.334;2022-08-25T13:59:25;45.00;;;43.33;;
10811;SDS011;5458;51.496;7.334;2022-08-25T14:01:56;30.02;;;28.67;;
10811;SDS011;5458;51.496;7.334;2022-08-25T14:04:28;45.30;;;43.65;;
10811;SDS011;5458;51.496;7.334;2022-08-25T14:09:54;34.03;;;32.72;;
10811;SDS011;5458;51.496;7.334;2022-08-25T14:15:08;43.85;;;42.17;;
10811;SDS011;5458;51.496;7.334;2022-08-25T14:18:06;47.15;;;45.42;;
10811;SDS011;5458;51.496;7.334;2022-08-25T14:20:36;33.25;;;32.00;;
10811;SDS011;5458;51.496;7.334;2022-08-25T14:23:09;68.78;;;66.38;;
10811;SDS011;5458;51.496;7.334;2022-08-25T14:25:38;50.42;;;48.58;;
10811;SDS011;5458;51.496;7.334;2022-08-25T14:28:05;60.83;;;58.47;;
10811;SDS011;5458;51.496;7.334;2022-08-25T14:30:43;66.15;;;63.88;;
10811;SDS011;5458;51.496;7.334;2022-08-25T14:33:20;85.80;;;82.75;;
10811;SDS011;5458;51.496;7.334;2022-08-25T14:35:52;55.38;;;53.28;;
10811;SDS011;5458;51.496;7.334;2022-08-25T14:38:19;53.50;;;51.60;;
10811;SDS011;5458;51.496;7.334;2022-08-25T14:40:47;106.63;;;103.15;;
10811;SDS011;5458;51.496;7.334;2022-08-25T14:43:13;80.35;;;77.50;;
10811;SDS011;5458;51.496;7.334;2022-08-25T14:45:40;111.35;;;107.47;;
10811;SDS011;5458;51.496;7.334;2022-08-25T14:48:08;100.03;;;96.63;;
10811;SDS011;5458;51.496;7.334;2022-08-25T14:50:38;67.63;;;65.28;;
10811;SDS011;5458;51.496;7.334;2022-08-25T14:53:06;110.75;;;107.05;;
10811;SDS011;5458;51.496;7.334;2022-08-25T14:55:31;90.95;;;87.93;;
10811;SDS011;5458;51.496;7.334;2022-08-25T14:57:57;68.80;;;66.10;;
10811;SDS011;5458;51.496;7.334;2022-08-25T15:00:23;88.68;;;85.70;;
10811;SDS011;5458;51.496;7.334;2022-08-25T15:02:49;94.00;;;90.95;;
10811;SDS011;5458;51.496;7.334;2022-08-25T15:05:16;56.85;;;54.85;;
10811;SDS011;5458;51.496;7.334;2022-08-25T15:07:48;98.88;;;95.45;;
10811;SDS011;5458;51.496;7.334;2022-08-25T15:10:33;90.20;;;87.13;;
10811;SDS011;5458;51.496;7.334;2022-08-25T15:12:58;100.60;;;97.00;;
10811;SDS011;5458;51.496;7.334;2022-08-25T15:15:24;123.53;;;119.55;;
10811;SDS011;5458;51.496;7.334;2022-08-25T15:17:52;90.32;;;87.10;;
10811;SDS011;5458;51.496;7.334;2022-08-25T15:20:18;84.40;;;81.55;;
10811;SDS011;5458;51.496;7.334;2022-08-25T15:22:44;93.20;;;90.15;;
10811;SDS011;5458;51.496;7.334;2022-08-25T15:25:12;76.72;;;74.05;;
10811;SDS011;5458;51.496;7.334;2022-08-25T15:27:38;75.72;;;73.20;;
10811;SDS011;5458;51.496;7.334;2022-08-25T15:30:04;87.85;;;84.90;;
10811;SDS011;5458;51.496;7.334;2022-08-25T15:32:31;91.18;;;87.85;;
10811;SDS011;5458;51.496;7.334;2022-08-25T15:34:57;75.45;;;72.90;;
10811;SDS011;5458;51.496;7.334;2022-08-25T15:37:23;61.33;;;59.03;;
10811;SDS011;5458;51.496;7.334;2022-08-25T15:39:49;74.03;;;71.43;;
10811;SDS011;5458;51.496;7.334;2022-08-25T15:42:15;130.05;;;125.70;;
10811;SDS011;5458;51.496;7.334;2022-08-25T15:44:42;72.75;;;70.20;;
10811;SDS011;5458;51.496;7.334;2022-08-25T15:47:08;95.70;;;92.30;;
10811;SDS011;5458;51.496;7.334;2022-08-25T15:49:34;82.65;;;79.55;;
10811;SDS011;5458;51.496;7.334;2022-08-25T15:52:00;83.55;;;80.55;;
10811;SDS011;5458;51.496;7.334;2022-08-25T15:54:27;74.85;;;72.00;;
10811;SDS011;5458;51.496;7.334;2022-08-25T15:56:54;137.02;;;132.52;;
10811;SDS011;5458;51.496;7.334;2022-08-25T15:59:21;139.15;;;134.70;;
10811;SDS011;5458;51.496;7.334;2022-08-25T16:01:47;133.80;;;129.48;;
10811;SDS011;5458;51.496;7.334;2022-08-25T16:04:17;146.48;;;141.82;;
10811;SDS011;5458;51.496;7.334;2022-08-25T16:06:43;88.50;;;85.57;;
10811;SDS011;5458;51.496;7.334;2022-08-25T16:09:08;86.45;;;83.63;;
10811;SDS011;5458;51.496;7.334;2022-08-25T16:11:34;99.40;;;95.97;;
10811;SDS011;5458;51.496;7.334;2022-08-25T16:14:02;80.55;;;77.60;;
10811;SDS011;5458;51.496;7.334;2022-08-25T16:16:29;143.43;;;138.40;;
10811;SDS011;5458;51.496;7.334;2022-08-25T16:18:56;114.70;;;111.00;;
10811;SDS011;5458;51.496;7.334;2022-08-25T16:21:24;80.20;;;77.13;;
10811;SDS011;5458;51.496;7.334;2022-08-25T16:23:52;152.07;;;147.20;;
10811;SDS011;5458;51.496;7.334;2022-08-25T16:26:19;129.65;;;125.57;;
10811;SDS011;5458;51.496;7.334;2022-08-25T16:28:45;157.38;;;152.32;;
10811;SDS011;5458;51.496;7.334;2022-08-25T16:31:11;97.32;;;94.13;;
10811;SDS011;5458;51.496;7.334;2022-08-25T16:33:38;107.93;;;104.43;;
10811;SDS011;5458;51.496;7.334;2022-08-25T16:36:14;95.35;;;92.05;;
10811;SDS011;5458;51.496;7.334;2022-08-25T16:38:43;143.27;;;138.55;;
10811;SDS011;5458;51.496;7.334;2022-08-25T16:41:17;57.20;;;55.20;;
10811;SDS011;5458;51.496;7.334;2022-08-25T16:43:47;58.60;;;56.38;;
10811;SDS011;5458;51.496;7.334;2022-08-25T16:46:14;119.53;;;115.40;;
10811;SDS011;5458;51.496;7.334;2022-08-25T16:48:41;83.43;;;80.68;;